sensor_id;sensor_type;location;lat;lon;timestamp;temperature;humidity
53776;DHT22;44276;49.534;6.378;2022-09-09T00:00:12;13.40;99.90
53776;DHT22;44276;49.534;6.378;2022-09-09T00:02:42;13.50;99.90
53776;DHT22;44276;49.534;6.378;2022-09-09T00:05:19;13.60;99.90
53776;DHT22;44276;49.534;6.378;2022-09-09T00:07:55;13.60;99.90
53776;DHT22;44276;49.534;6.378;2022-09-09T00:10:28;13.70;99.90
53776;DHT22;44276;49.534;6.378;2022-09-09T00:13:02;13.70;99.90
53776;DHT22;44276;49.534;6.378;2022-09-09T00:15:44;13.70;99.90
53776;DHT22;44276;49.534;6.378;2022-09-09T00:18:24;13.90;99.90
53776;DHT22;44276;49.534;6.378;2022-09-09T00:20:58;14.10;99.90
53776;DHT22;44276;49.534;6.378;2022-09-09T00:23:34;14.10;99.90
53776;DHT22;44276;49.534;6.378;2022-09-09T00:26:08;14.30;99.90
53776;DHT22;44276;49.534;6.378;2022-09-09T00:28:44;14.40;99.90
53776;DHT22;44276;49.534;6.378;2022-09-09T00:31:18;14.50;99.90
53776;DHT22;44276;49.534;6.378;2022-09-09T00:33:50;14.60;99.90
53776;DHT22;44276;49.534;6.378;2022-09-09T00:36:22;14.70;99.90
53776;DHT22;44276;49.534;6.378;2022-09-09T00:38:55;14.80;99.90
53776;DHT22;44276;49.534;6.378;2022-09-09T00:41:26;14.90;99.90
53776;DHT22;44276;49.534;6.378;2022-09-09T00:44:12;15.00;99.90
53776;DHT22;44276;49.534;6.378;2022-09-09T00:46:53;15.00;99.90
53776;DHT22;44276;49.534;6.378;2022-09-09T00:49:31;15.00;99.90
53776;DHT22;44276;49.534;6.378;2022-09-09T00:52:15;15.00;99.90
53776;DHT22;44276;49.534;6.378;2022-09-09T00:54:55;14.90;99.90
53776;DHT22;44276;49.534;6.378;2022-09-09T00:57:32;14.90;99.90
53776;DHT22;44276;49.534;6.378;2022-09-09T01:00:16;14.80;99.90
53776;DHT22;44276;49.534;6.378;2022-09-09T01:02:48;14.70;99.90
53776;DHT22;44276;49.534;6.378;2022-09-09T01:05:30;14.70;99.90
53776;DHT22;44276;49.534;6.378;2022-09-09T01:08:05;14.70;99.90
53776;DHT22;44276;49.534;6.378;2022-09-09T01:10:39;14.80;99.90
53776;DHT22;44276;49.534;6.378;2022-09-09T01:13:15;14.80;99.90
53776;DHT22;44276;49.534;6.378;2022-09-09T01:15:49;14.80;99.90
53776;DHT22;44276;49.534;6.378;2022-09-09T01:18:26;14.90;99.90
53776;DHT22;44276;49.534;6.378;2022-09-09T01:20:59;15.10;99.90
53776;DHT22;44276;49.534;6.378;2022-09-09T01:23:43;15.20;99.90
53776;DHT22;44276;49.534;6.378;2022-09-09T01:26:26;15.20;99.90
53776;DHT22;44276;49.534;6.378;2022-09-09T01:28:58;15.30;99.90
53776;DHT22;44276;49.534;6.378;2022-09-09T01:31:26;15.30;99.90
53776;DHT22;44276;49.534;6.378;2022-09-09T01:33:56;15.30;99.90
53776;DHT22;44276;49.534;6.378;2022-09-09T01:36:26;15.30;99.90
53776;DHT22;44276;49.534;6.378;2022-09-09T01:38:59;15.30;99.90
53776;DHT22;44276;49.534;6.378;2022-09-09T01:41:29;15.30;99.90
53776;DHT22;44276;49.534;6.378;2022-09-09T01:43:57;15.30;99.90
53776;DHT22;44276;49.534;6.378;2022-09-09T01:46:27;15.30;99.90
53776;DHT22;44276;49.534;6.378;2022-09-09T01:48:56;15.20;99.90
53776;DHT22;44276;49.534;6.378;2022-09-09T01:51:26;15.20;99.90
53776;DHT22;44276;49.534;6.378;2022-09-09T01:53:54;15.30;99.90
53776;DHT22;44276;49.534;6.378;2022-09-09T01:56:26;15.10;99.90
53776;DHT22;44276;49.534;6.378;2022-09-09T01:59:06;15.20;99.90
53776;DHT22;44276;49.534;6.378;2022-09-09T02:01:48;15.20;99.90
53776;DHT22;44276;49.534;6.378;2022-09-09T02:04:28;15.20;99.90
53776;DHT22;44276;49.534;6.378;2022-09-09T02:07:06;15.30;99.90
53776;DHT22;44276;49.534;6.378;2022-09-09T02:09:47;15.30;99.90
53776;DHT22;44276;49.534;6.378;2022-09-09T02:12:20;15.30;99.90
53776;DHT22;44276;49.534;6.378;2022-09-09T02:14:55;15.30;99.90
53776;DHT22;44276;49.534;6.378;2022-09-09T02:17:27;15.30;99.90
53776;DHT22;44276;49.534;6.378;2022-09-09T02:20:00;15.40;99.90
53776;DHT22;44276;49.534;6.378;2022-09-09T02:22:32;15.40;99.90
53776;DHT22;44276;49.534;6.378;2022-09-09T02:25:02;15.50;99.90
53776;DHT22;44276;49.534;6.378;2022-09-09T02:27:35;15.50;99.90
53776;DHT22;44276;49.534;6.378;2022-09-09T02:30:04;15.50;99.90
53776;DHT22;44276;49.534;6.378;2022-09-09T02:32:33;15.50;99.90
53776;DHT22;44276;49.534;6.378;2022-09-09T02:35:04;15.60;99.90
53776;DHT22;44276;49.534;6.378;2022-09-09T02:37:36;15.60;99.90
53776;DHT22;44276;49.534;6.378;2022-09-09T02:40:09;15.60;99.90
53776;DHT22;44276;49.534;6.378;2022-09-09T02:42:40;15.50;99.90
53776;DHT22;44276;49.534;6.378;2022-09-09T02:45:10;15.50;99.90
53776;DHT22;44276;49.534;6.378;2022-09-09T02:47:41;15.50;99.90
53776;DHT22;44276;49.534;6.378;2022-09-09T02:50:16;15.40;99.90
53776;DHT22;44276;49.534;6.378;2022-09-09T02:52:50;15.50;99.90
53776;DHT22;44276;49.534;6.378;2022-09-09T02:55:28;15.60;99.90
53776;DHT22;44276;49.534;6.378;2022-09-09T02:58:08;15.70;99.90
53776;DHT22;44276;49.534;6.378;2022-09-09T03:00:38;15.80;99.90
53776;DHT22;44276;49.534;6.378;2022-09-09T03:03:08;15.80;99.90
53776;DHT22;44276;49.534;6.378;2022-09-09T03:05:36;15.90;99.90
53776;DHT22;44276;49.534;6.378;2022-09-09T03:08:05;16.00;99.90
53776;DHT22;44276;49.534;6.378;2022-09-09T03:10:33;16.10;99.90
53776;DHT22;44276;49.534;6.378;2022-09-09T03:13:03;16.20;99.90
53776;DHT22;44276;49.534;6.378;2022-09-09T03:15:33;16.20;99.90
53776;DHT22;44276;49.534;6.378;2022-09-09T03:18:01;16.20;99.90
53776;DHT22;44276;49.534;6.378;2022-09-09T03:20:30;16.20;99.90
53776;DHT22;44276;49.534;6.378;2022-09-09T03:23:00;16.10;99.90
53776;DHT22;44276;49.534;6.378;2022-09-09T03:25:28;16.00;99.90
53776;DHT22;44276;49.534;6.378;2022-09-09T03:27:56;16.00;99.90
53776;DHT22;44276;49.534;6.378;2022-09-09T03:30:25;15.80;99.90
53776;DHT22;44276;49.534;6.378;2022-09-09T03:32:55;15.80;99.90
53776;DHT22;44276;49.534;6.378;2022-09-09T03:35:24;16.00;99.90
53776;DHT22;44276;49.534;6.378;2022-09-09T03:37:52;16.10;99.90
53776;DHT22;44276;49.534;6.378;2022-09-09T03:40:22;16.20;99.90
53776;DHT22;44276;49.534;6.378;2022-09-09T03:42:50;16.20;99.90
53776;DHT22;44276;49.534;6.378;2022-09-09T03:45:18;16.20;99.90
53776;DHT22;44276;49.534;6.378;2022-09-09T03:47:46;16.20;99.90
53776;DHT22;44276;49.534;6.378;2022-09-09T03:50:15;16.20;99.90
53776;DHT22;44276;49.534;6.378;2022-09-09T03:52:44;16.20;99.90
53776;DHT22;44276;49.534;6.378;2022-09-09T03:55:13;16.20;99.90
53776;DHT22;44276;49.534;6.378;2022-09-09T03:57:41;16.20;99.90
53776;DHT22;44276;49.534;6.378;2022-09-09T04:00:12;16.20;99.90
53776;DHT22;44276;49.534;6.378;2022-09-09T04:02:40;16.10;99.90
53776;DHT22;44276;49.534;6.378;2022-09-09T04:05:09;16.00;99.90
53776;DHT22;44276;49.534;6.378;2022-09-09T04:07:39;16.10;99.90
53776;DHT22;44276;49.534;6.378;2022-09-09T04:10:07;16.10;99.90
53776;DHT22;44276;49.534;6.378;2022-09-09T04:12:36;16.10;99.90
53776;DHT22;44276;49.534;6.378;2022-09-09T04:15:04;16.10;99.90
53776;DHT22;44276;49.534;6.378;2022-09-09T04:17:33;16.10;99.90
53776;DHT22;44276;49.534;6.378;2022-09-09T04:20:02;16.10;99.90
53776;DHT22;44276;49.534;6.378;2022-09-09T04:22:31;16.10;99.90
53776;DHT22;44276;49.534;6.378;2022-09-09T04:25:00;16.10;99.90
53776;DHT22;44276;49.534;6.378;2022-09-09T04:27:28;16.10;99.90
53776;DHT22;44276;49.534;6.378;2022-09-09T04:29:56;16.10;99.90
53776;DHT22;44276;49.534;6.378;2022-09-09T04:32:25;16.10;99.90
53776;DHT22;44276;49.534;6.378;2022-09-09T04:34:54;16.10;99.90
53776;DHT22;44276;49.534;6.378;2022-09-09T04:37:22;16.10;99.90
53776;DHT22;44276;49.534;6.378;2022-09-09T04:39:51;16.10;99.90
53776;DHT22;44276;49.534;6.378;2022-09-09T04:42:20;16.10;99.90
53776;DHT22;44276;49.534;6.378;2022-09-09T04:44:49;16.10;99.90
53776;DHT22;44276;49.534;6.378;2022-09-09T04:47:17;16.20;99.90
53776;DHT22;44276;49.534;6.378;2022-09-09T04:49:45;16.20;99.90
53776;DHT22;44276;49.534;6.378;2022-09-09T04:52:13;16.20;99.90
53776;DHT22;44276;49.534;6.378;2022-09-09T04:54:43;16.20;99.90
53776;DHT22;44276;49.534;6.378;2022-09-09T04:57:12;16.20;99.90
53776;DHT22;44276;49.534;6.378;2022-09-09T04:59:45;16.10;99.90
53776;DHT22;44276;49.534;6.378;2022-09-09T05:02:14;16.00;99.90
53776;DHT22;44276;49.534;6.378;2022-09-09T05:04:42;15.90;99.90
53776;DHT22;44276;49.534;6.378;2022-09-09T05:07:10;15.80;99.90
53776;DHT22;44276;49.534;6.378;2022-09-09T05:09:39;15.70;99.90
53776;DHT22;44276;49.534;6.378;2022-09-09T05:12:07;15.80;99.90
53776;DHT22;44276;49.534;6.378;2022-09-09T05:14:35;15.80;99.90
53776;DHT22;44276;49.534;6.378;2022-09-09T05:17:05;15.80;99.90
53776;DHT22;44276;49.534;6.378;2022-09-09T05:19:33;15.90;99.90
53776;DHT22;44276;49.534;6.378;2022-09-09T05:22:01;16.00;99.90
53776;DHT22;44276;49.534;6.378;2022-09-09T05:24:30;15.90;99.90
53776;DHT22;44276;49.534;6.378;2022-09-09T05:26:59;16.00;99.90
53776;DHT22;44276;49.534;6.378;2022-09-09T05:29:28;16.00;99.90
53776;DHT22;44276;49.534;6.378;2022-09-09T05:32:00;16.00;99.90
53776;DHT22;44276;49.534;6.378;2022-09-09T05:34:30;16.00;99.90
53776;DHT22;44276;49.534;6.378;2022-09-09T05:36:58;16.10;99.90
53776;DHT22;44276;49.534;6.378;2022-09-09T05:39:26;16.10;99.90
53776;DHT22;44276;49.534;6.378;2022-09-09T05:41:54;16.20;99.90
53776;DHT22;44276;49.534;6.378;2022-09-09T05:44:22;16.20;99.90
53776;DHT22;44276;49.534;6.378;2022-09-09T05:46:53;16.20;99.90
53776;DHT22;44276;49.534;6.378;2022-09-09T05:49:22;16.30;99.90
53776;DHT22;44276;49.534;6.378;2022-09-09T05:51:51;16.30;99.90
53776;DHT22;44276;49.534;6.378;2022-09-09T05:54:19;16.30;99.90
53776;DHT22;44276;49.534;6.378;2022-09-09T05:56:47;16.30;99.90
53776;DHT22;44276;49.534;6.378;2022-09-09T05:59:17;16.50;99.90
53776;DHT22;44276;49.534;6.378;2022-09-09T06:01:45;16.40;99.90
53776;DHT22;44276;49.534;6.378;2022-09-09T06:04:14;16.40;99.90
53776;DHT22;44276;49.534;6.378;2022-09-09T06:06:42;16.40;99.90
53776;DHT22;44276;49.534;6.378;2022-09-09T06:09:11;16.30;99.90
53776;DHT22;44276;49.534;6.378;2022-09-09T06:11:40;16.30;99.90
53776;DHT22;44276;49.534;6.378;2022-09-09T06:14:10;16.30;99.90
53776;DHT22;44276;49.534;6.378;2022-09-09T06:16:38;16.30;99.90
53776;DHT22;44276;49.534;6.378;2022-09-09T06:19:10;16.40;99.90
53776;DHT22;44276;49.534;6.378;2022-09-09T06:21:39;16.40;99.90
53776;DHT22;44276;49.534;6.378;2022-09-09T06:24:09;16.40;99.90
53776;DHT22;44276;49.534;6.378;2022-09-09T06:26:39;16.40;99.90
53776;DHT22;44276;49.534;6.378;2022-09-09T06:29:08;16.50;99.90
53776;DHT22;44276;49.534;6.378;2022-09-09T06:31:36;16.50;99.90
53776;DHT22;44276;49.534;6.378;2022-09-09T06:34:05;16.50;99.90
53776;DHT22;44276;49.534;6.378;2022-09-09T06:36:35;16.50;99.90
53776;DHT22;44276;49.534;6.378;2022-09-09T06:39:04;16.60;99.90
53776;DHT22;44276;49.534;6.378;2022-09-09T06:41:41;16.60;99.90
53776;DHT22;44276;49.534;6.378;2022-09-09T06:44:10;16.70;99.90
53776;DHT22;44276;49.534;6.378;2022-09-09T06:46:39;16.80;99.90
53776;DHT22;44276;49.534;6.378;2022-09-09T06:49:07;16.90;99.90
53776;DHT22;44276;49.534;6.378;2022-09-09T06:51:36;16.90;99.90
53776;DHT22;44276;49.534;6.378;2022-09-09T06:54:09;17.00;99.90
53776;DHT22;44276;49.534;6.378;2022-09-09T06:56:39;17.10;99.90
53776;DHT22;44276;49.534;6.378;2022-09-09T06:59:09;17.20;99.90
53776;DHT22;44276;49.534;6.378;2022-09-09T07:01:39;17.30;99.90
53776;DHT22;44276;49.534;6.378;2022-09-09T07:04:08;17.40;99.90
53776;DHT22;44276;49.534;6.378;2022-09-09T07:06:38;17.40;99.90
53776;DHT22;44276;49.534;6.378;2022-09-09T07:09:09;17.30;99.90
53776;DHT22;44276;49.534;6.378;2022-09-09T07:11:42;17.40;99.90
53776;DHT22;44276;49.534;6.378;2022-09-09T07:14:11;17.30;99.90
53776;DHT22;44276;49.534;6.378;2022-09-09T07:16:40;17.30;99.90
53776;DHT22;44276;49.534;6.378;2022-09-09T07:19:08;17.30;99.90
53776;DHT22;44276;49.534;6.378;2022-09-09T07:21:37;17.20;99.90
53776;DHT22;44276;49.534;6.378;2022-09-09T07:24:06;17.30;99.90
53776;DHT22;44276;49.534;6.378;2022-09-09T07:26:37;17.30;99.90
53776;DHT22;44276;49.534;6.378;2022-09-09T07:29:08;17.20;99.90
53776;DHT22;44276;49.534;6.378;2022-09-09T07:31:36;17.10;99.90
53776;DHT22;44276;49.534;6.378;2022-09-09T07:34:07;17.10;99.90
53776;DHT22;44276;49.534;6.378;2022-09-09T07:36:35;17.00;99.90
53776;DHT22;44276;49.534;6.378;2022-09-09T07:39:06;17.00;99.90
53776;DHT22;44276;49.534;6.378;2022-09-09T07:41:36;17.10;99.90
53776;DHT22;44276;49.534;6.378;2022-09-09T07:44:08;17.20;99.90
53776;DHT22;44276;49.534;6.378;2022-09-09T07:46:37;17.20;99.90
53776;DHT22;44276;49.534;6.378;2022-09-09T07:49:08;17.20;99.90
53776;DHT22;44276;49.534;6.378;2022-09-09T07:51:40;17.20;99.90
53776;DHT22;44276;49.534;6.378;2022-09-09T07:54:10;17.40;99.90
53776;DHT22;44276;49.534;6.378;2022-09-09T07:56:39;17.30;99.90
53776;DHT22;44276;49.534;6.378;2022-09-09T07:59:09;17.20;99.90
53776;DHT22;44276;49.534;6.378;2022-09-09T08:01:39;17.10;99.90
53776;DHT22;44276;49.534;6.378;2022-09-09T08:04:10;17.20;99.90
53776;DHT22;44276;49.534;6.378;2022-09-09T08:06:42;17.30;99.90
53776;DHT22;44276;49.534;6.378;2022-09-09T08:09:11;17.50;99.90
53776;DHT22;44276;49.534;6.378;2022-09-09T08:11:39;17.70;99.90
53776;DHT22;44276;49.534;6.378;2022-09-09T08:14:09;17.80;99.90
53776;DHT22;44276;49.534;6.378;2022-09-09T08:16:39;18.00;99.90
53776;DHT22;44276;49.534;6.378;2022-09-09T08:19:09;17.90;99.90
53776;DHT22;44276;49.534;6.378;2022-09-09T08:21:37;17.70;99.90
53776;DHT22;44276;49.534;6.378;2022-09-09T08:24:08;17.50;99.90
53776;DHT22;44276;49.534;6.378;2022-09-09T08:26:39;17.30;99.90
53776;DHT22;44276;49.534;6.378;2022-09-09T08:29:11;17.20;99.90
53776;DHT22;44276;49.534;6.378;2022-09-09T08:31:40;17.30;99.90
53776;DHT22;44276;49.534;6.378;2022-09-09T08:34:10;17.60;99.90
53776;DHT22;44276;49.534;6.378;2022-09-09T08:36:39;18.00;98.40
53776;DHT22;44276;49.534;6.378;2022-09-09T08:39:09;18.40;98.60
53776;DHT22;44276;49.534;6.378;2022-09-09T08:42:00;18.50;95.00
53776;DHT22;44276;49.534;6.378;2022-09-09T08:44:53;18.60;93.70
53776;DHT22;44276;49.534;6.378;2022-09-09T08:47:44;19.00;89.50
53776;DHT22;44276;49.534;6.378;2022-09-09T08:50:24;19.50;78.60
53776;DHT22;44276;49.534;6.378;2022-09-09T08:52:56;19.80;78.60
53776;DHT22;44276;49.534;6.378;2022-09-09T08:55:32;19.70;75.10
53776;DHT22;44276;49.534;6.378;2022-09-09T08:58:11;19.50;76.70
53776;DHT22;44276;49.534;6.378;2022-09-09T09:00:46;19.20;77.50
53776;DHT22;44276;49.534;6.378;2022-09-09T09:03:28;20.10;74.90
53776;DHT22;44276;49.534;6.378;2022-09-09T09:06:04;20.10;72.30
53776;DHT22;44276;49.534;6.378;2022-09-09T09:08:52;20.00;74.70
53776;DHT22;44276;49.534;6.378;2022-09-09T09:11:26;19.90;73.40
53776;DHT22;44276;49.534;6.378;2022-09-09T09:13:54;19.80;73.70
53776;DHT22;44276;49.534;6.378;2022-09-09T09:16:30;19.50;73.00
53776;DHT22;44276;49.534;6.378;2022-09-09T09:19:06;19.50;73.50
53776;DHT22;44276;49.534;6.378;2022-09-09T09:21:41;19.40;73.50
53776;DHT22;44276;49.534;6.378;2022-09-09T09:24:13;19.30;76.00
53776;DHT22;44276;49.534;6.378;2022-09-09T09:26:47;19.30;73.40
53776;DHT22;44276;49.534;6.378;2022-09-09T09:29:16;19.30;74.60
53776;DHT22;44276;49.534;6.378;2022-09-09T09:31:48;19.20;75.10
53776;DHT22;44276;49.534;6.378;2022-09-09T09:34:21;19.30;72.00
53776;DHT22;44276;49.534;6.378;2022-09-09T09:36:53;19.50;68.20
53776;DHT22;44276;49.534;6.378;2022-09-09T09:39:28;19.50;66.40
53776;DHT22;44276;49.534;6.378;2022-09-09T09:42:18;20.00;62.60
53776;DHT22;44276;49.534;6.378;2022-09-09T09:44:49;20.10;61.60
53776;DHT22;44276;49.534;6.378;2022-09-09T09:47:20;20.70;58.90
53776;DHT22;44276;49.534;6.378;2022-09-09T09:49:53;21.30;54.10
53776;DHT22;44276;49.534;6.378;2022-09-09T09:52:22;21.40;53.30
53776;DHT22;44276;49.534;6.378;2022-09-09T09:54:52;22.00;53.20
53776;DHT22;44276;49.534;6.378;2022-09-09T09:57:22;23.00;46.60
53776;DHT22;44276;49.534;6.378;2022-09-09T10:00:03;22.30;45.70
53776;DHT22;44276;49.534;6.378;2022-09-09T10:02:39;22.20;47.00
53776;DHT22;44276;49.534;6.378;2022-09-09T10:05:13;22.30;45.60
53776;DHT22;44276;49.534;6.378;2022-09-09T10:07:43;21.70;45.60
53776;DHT22;44276;49.534;6.378;2022-09-09T10:10:13;21.50;47.70
53776;DHT22;44276;49.534;6.378;2022-09-09T10:12:52;21.10;47.00
53776;DHT22;44276;49.534;6.378;2022-09-09T10:15:32;20.70;47.60
53776;DHT22;44276;49.534;6.378;2022-09-09T10:18:16;22.30;43.60
53776;DHT22;44276;49.534;6.378;2022-09-09T10:20:54;22.60;40.80
53776;DHT22;44276;49.534;6.378;2022-09-09T10:23:36;21.90;40.80
53776;DHT22;44276;49.534;6.378;2022-09-09T10:26:19;21.50;43.70
53776;DHT22;44276;49.534;6.378;2022-09-09T10:29:07;21.20;44.50
53776;DHT22;44276;49.534;6.378;2022-09-09T10:31:54;21.80;42.70
53776;DHT22;44276;49.534;6.378;2022-09-09T10:34:39;22.20;42.50
53776;DHT22;44276;49.534;6.378;2022-09-09T10:37:24;22.30;41.30
53776;DHT22;44276;49.534;6.378;2022-09-09T10:40:14;21.90;42.30
53776;DHT22;44276;49.534;6.378;2022-09-09T10:42:53;21.70;43.00
53776;DHT22;44276;49.534;6.378;2022-09-09T10:45:28;21.20;43.90
53776;DHT22;44276;49.534;6.378;2022-09-09T10:48:13;21.00;45.90
53776;DHT22;44276;49.534;6.378;2022-09-09T10:50:56;21.00;46.00
53776;DHT22;44276;49.534;6.378;2022-09-09T10:53:35;21.00;46.80
53776;DHT22;44276;49.534;6.378;2022-09-09T10:56:16;21.30;47.30
53776;DHT22;44276;49.534;6.378;2022-09-09T10:58:47;21.80;45.80
53776;DHT22;44276;49.534;6.378;2022-09-09T11:01:20;22.30;44.10
53776;DHT22;44276;49.534;6.378;2022-09-09T11:03:52;22.70;41.20
53776;DHT22;44276;49.534;6.378;2022-09-09T11:06:28;22.40;41.10
53776;DHT22;44276;49.534;6.378;2022-09-09T11:08:59;21.40;43.30
53776;DHT22;44276;49.534;6.378;2022-09-09T11:11:31;20.60;54.50
53776;DHT22;44276;49.534;6.378;2022-09-09T11:14:05;19.80;60.20
53776;DHT22;44276;49.534;6.378;2022-09-09T11:16:40;19.20;59.80
53776;DHT22;44276;49.534;6.378;2022-09-09T11:19:16;18.60;80.80
53776;DHT22;44276;49.534;6.378;2022-09-09T11:21:52;17.10;99.90
53776;DHT22;44276;49.534;6.378;2022-09-09T11:24:21;17.10;99.90
53776;DHT22;44276;49.534;6.378;2022-09-09T11:26:57;17.60;99.90
53776;DHT22;44276;49.534;6.378;2022-09-09T11:29:43;18.20;99.90
53776;DHT22;44276;49.534;6.378;2022-09-09T11:32:24;18.70;99.90
53776;DHT22;44276;49.534;6.378;2022-09-09T11:35:09;19.30;99.90
53776;DHT22;44276;49.534;6.378;2022-09-09T11:37:53;19.50;99.90
53776;DHT22;44276;49.534;6.378;2022-09-09T11:40:32;20.80;99.90
53776;DHT22;44276;49.534;6.378;2022-09-09T11:43:02;22.10;78.90
53776;DHT22;44276;49.534;6.378;2022-09-09T11:45:33;22.90;70.30
53776;DHT22;44276;49.534;6.378;2022-09-09T11:48:03;23.10;69.00
53776;DHT22;44276;49.534;6.378;2022-09-09T11:50:33;24.00;58.90
53776;DHT22;44276;49.534;6.378;2022-09-09T11:53:20;23.80;57.50
53776;DHT22;44276;49.534;6.378;2022-09-09T11:56:00;23.70;53.70
53776;DHT22;44276;49.534;6.378;2022-09-09T11:58:33;23.50;55.10
53776;DHT22;44276;49.534;6.378;2022-09-09T12:01:15;22.70;57.50
53776;DHT22;44276;49.534;6.378;2022-09-09T12:03:55;22.70;57.60
53776;DHT22;44276;49.534;6.378;2022-09-09T12:06:50;22.80;57.30
53776;DHT22;44276;49.534;6.378;2022-09-09T12:09:27;23.20;53.80
53776;DHT22;44276;49.534;6.378;2022-09-09T12:12:05;22.80;50.90
53776;DHT22;44276;49.534;6.378;2022-09-09T12:14:35;22.20;54.40
53776;DHT22;44276;49.534;6.378;2022-09-09T12:17:09;21.70;53.70
53776;DHT22;44276;49.534;6.378;2022-09-09T12:19:46;21.50;58.10
53776;DHT22;44276;49.534;6.378;2022-09-09T12:22:17;21.20;58.10
53776;DHT22;44276;49.534;6.378;2022-09-09T12:24:57;21.20;59.00
53776;DHT22;44276;49.534;6.378;2022-09-09T12:27:33;22.20;55.40
53776;DHT22;44276;49.534;6.378;2022-09-09T12:30:08;22.70;47.00
53776;DHT22;44276;49.534;6.378;2022-09-09T12:32:39;22.90;42.00
53776;DHT22;44276;49.534;6.378;2022-09-09T12:35:09;23.00;42.00
53776;DHT22;44276;49.534;6.378;2022-09-09T12:37:41;22.80;42.10
53776;DHT22;44276;49.534;6.378;2022-09-09T12:40:20;22.80;41.30
53776;DHT22;44276;49.534;6.378;2022-09-09T12:42:51;22.70;40.70
53776;DHT22;44276;49.534;6.378;2022-09-09T12:45:21;22.50;42.30
53776;DHT22;44276;49.534;6.378;2022-09-09T12:47:53;22.30;42.50
53776;DHT22;44276;49.534;6.378;2022-09-09T12:50:27;22.30;42.30
53776;DHT22;44276;49.534;6.378;2022-09-09T12:52:58;23.00;42.60
53776;DHT22;44276;49.534;6.378;2022-09-09T12:55:31;22.70;39.20
53776;DHT22;44276;49.534;6.378;2022-09-09T12:58:03;22.10;41.30
53776;DHT22;44276;49.534;6.378;2022-09-09T13:00:32;21.60;44.00
53776;DHT22;44276;49.534;6.378;2022-09-09T13:03:13;21.30;46.20
53776;DHT22;44276;49.534;6.378;2022-09-09T13:05:44;21.30;48.20
53776;DHT22;44276;49.534;6.378;2022-09-09T13:08:13;21.60;45.80
53776;DHT22;44276;49.534;6.378;2022-09-09T13:10:49;21.70;45.50
53776;DHT22;44276;49.534;6.378;2022-09-09T13:13:27;22.10;45.20
53776;DHT22;44276;49.534;6.378;2022-09-09T13:15:59;21.90;43.30
53776;DHT22;44276;49.534;6.378;2022-09-09T13:18:30;22.20;40.80
53776;DHT22;44276;49.534;6.378;2022-09-09T13:21:00;22.40;38.50
53776;DHT22;44276;49.534;6.378;2022-09-09T13:23:29;22.80;40.80
53776;DHT22;44276;49.534;6.378;2022-09-09T13:26:00;23.30;36.90
53776;DHT22;44276;49.534;6.378;2022-09-09T13:28:30;23.40;37.90
53776;DHT22;44276;49.534;6.378;2022-09-09T13:31:00;23.90;36.90
53776;DHT22;44276;49.534;6.378;2022-09-09T13:33:31;23.90;37.10
53776;DHT22;44276;49.534;6.378;2022-09-09T13:36:04;23.10;37.60
53776;DHT22;44276;49.534;6.378;2022-09-09T13:38:35;22.40;39.90
53776;DHT22;44276;49.534;6.378;2022-09-09T13:41:07;21.70;42.50
53776;DHT22;44276;49.534;6.378;2022-09-09T13:43:42;21.10;44.50
53776;DHT22;44276;49.534;6.378;2022-09-09T13:46:23;20.60;47.30
53776;DHT22;44276;49.534;6.378;2022-09-09T13:48:57;20.00;45.00
53776;DHT22;44276;49.534;6.378;2022-09-09T13:51:30;18.50;61.90
53776;DHT22;44276;49.534;6.378;2022-09-09T13:54:03;16.10;99.90
53776;DHT22;44276;49.534;6.378;2022-09-09T13:56:34;14.40;99.90
53776;DHT22;44276;49.534;6.378;2022-09-09T13:59:03;14.20;99.90
53776;DHT22;44276;49.534;6.378;2022-09-09T14:01:33;14.20;99.90
53776;DHT22;44276;49.534;6.378;2022-09-09T14:04:01;14.40;99.90
53776;DHT22;44276;49.534;6.378;2022-09-09T14:06:30;14.50;99.90
53776;DHT22;44276;49.534;6.378;2022-09-09T14:08:58;14.70;99.90
53776;DHT22;44276;49.534;6.378;2022-09-09T14:11:26;15.00;99.90
53776;DHT22;44276;49.534;6.378;2022-09-09T14:13:56;15.30;99.90
53776;DHT22;44276;49.534;6.378;2022-09-09T14:16:24;15.60;99.90
53776;DHT22;44276;49.534;6.378;2022-09-09T14:18:54;15.90;99.90
53776;DHT22;44276;49.534;6.378;2022-09-09T14:21:23;16.30;99.90
53776;DHT22;44276;49.534;6.378;2022-09-09T14:23:52;16.60;99.90
53776;DHT22;44276;49.534;6.378;2022-09-09T14:26:21;17.00;99.90
53776;DHT22;44276;49.534;6.378;2022-09-09T14:28:50;17.40;99.90
53776;DHT22;44276;49.534;6.378;2022-09-09T14:31:22;17.70;99.90
53776;DHT22;44276;49.534;6.378;2022-09-09T14:33:51;18.10;99.90
53776;DHT22;44276;49.534;6.378;2022-09-09T14:36:19;18.80;99.90
53776;DHT22;44276;49.534;6.378;2022-09-09T14:38:47;19.70;99.90
53776;DHT22;44276;49.534;6.378;2022-09-09T14:41:16;20.40;99.90
53776;DHT22;44276;49.534;6.378;2022-09-09T14:43:45;21.20;99.90
53776;DHT22;44276;49.534;6.378;2022-09-09T14:46:14;22.30;92.20
53776;DHT22;44276;49.534;6.378;2022-09-09T14:48:45;23.00;73.00
53776;DHT22;44276;49.534;6.378;2022-09-09T14:51:15;23.60;64.20
53776;DHT22;44276;49.534;6.378;2022-09-09T14:53:59;24.00;59.30
53776;DHT22;44276;49.534;6.378;2022-09-09T14:56:32;24.90;54.40
53776;DHT22;44276;49.534;6.378;2022-09-09T14:59:21;25.40;51.50
53776;DHT22;44276;49.534;6.378;2022-09-09T15:02:01;25.10;48.70
53776;DHT22;44276;49.534;6.378;2022-09-09T15:04:52;24.50;51.20
53776;DHT22;44276;49.534;6.378;2022-09-09T15:07:23;23.80;48.60
53776;DHT22;44276;49.534;6.378;2022-09-09T15:09:52;23.20;52.90
53776;DHT22;44276;49.534;6.378;2022-09-09T15:12:20;22.60;53.00
53776;DHT22;44276;49.534;6.378;2022-09-09T15:14:49;21.50;58.30
53776;DHT22;44276;49.534;6.378;2022-09-09T15:17:18;20.80;62.00
53776;DHT22;44276;49.534;6.378;2022-09-09T15:19:48;20.20;67.80
53776;DHT22;44276;49.534;6.378;2022-09-09T15:22:18;19.80;72.90
53776;DHT22;44276;49.534;6.378;2022-09-09T15:24:46;19.60;76.60
53776;DHT22;44276;49.534;6.378;2022-09-09T15:27:14;19.50;78.70
53776;DHT22;44276;49.534;6.378;2022-09-09T15:29:42;19.50;80.40
53776;DHT22;44276;49.534;6.378;2022-09-09T15:32:10;19.70;84.80
53776;DHT22;44276;49.534;6.378;2022-09-09T15:34:38;19.80;80.40
53776;DHT22;44276;49.534;6.378;2022-09-09T15:37:06;19.80;80.50
53776;DHT22;44276;49.534;6.378;2022-09-09T15:39:40;20.00;76.60
53776;DHT22;44276;49.534;6.378;2022-09-09T15:42:09;19.90;75.10
53776;DHT22;44276;49.534;6.378;2022-09-09T15:44:39;19.90;74.50
53776;DHT22;44276;49.534;6.378;2022-09-09T15:47:09;19.70;73.50
53776;DHT22;44276;49.534;6.378;2022-09-09T15:49:39;19.70;74.50
53776;DHT22;44276;49.534;6.378;2022-09-09T15:52:08;19.50;74.40
53776;DHT22;44276;49.534;6.378;2022-09-09T15:54:38;19.40;72.00
53776;DHT22;44276;49.534;6.378;2022-09-09T15:57:11;19.40;72.50
53776;DHT22;44276;49.534;6.378;2022-09-09T15:59:40;19.30;73.40
53776;DHT22;44276;49.534;6.378;2022-09-09T16:02:08;19.30;73.90